sensor_id;sensor_type;location;lat;lon;timestamp;pressure;altitude;pressure_sealevel;temperature;humidity
57232;BME280;43488;46.934;8.276;2023-02-04T00:00:30;98120.22;;;5.44;89.71
57232;BME280;43488;46.934;8.276;2023-02-04T00:03:00;98120.63;;;5.39;89.54
57232;BME280;43488;46.934;8.276;2023-02-04T00:05:30;98121.03;;;5.35;89.73
57232;BME280;43488;46.934;8.276;2023-02-04T00:07:58;98126.25;;;5.35;89.65
57232;BME280;43488;46.934;8.276;2023-02-04T00:10:26;98127.34;;;5.32;89.86
57232;BME280;43488;46.934;8.276;2023-02-04T00:12:53;98119.38;;;5.34;89.53
57232;BME280;43488;46.934;8.276;2023-02-04T00:15:21;98117.44;;;5.26;89.93
57232;BME280;43488;46.934;8.276;2023-02-04T00:17:49;98107.78;;;5.17;90.76
57232;BME280;43488;46.934;8.276;2023-02-04T00:20:17;98108.63;;;5.18;91.24
57232;BME280;43488;46.934;8.276;2023-02-04T00:22:45;98107.25;;;5.13;91.42
57232;BME280;43488;46.934;8.276;2023-02-04T00:25:13;98115.06;;;5.13;91.96
57232;BME280;43488;46.934;8.276;2023-02-04T00:27:40;98116.28;;;5.09;92.29
57232;BME280;43488;46.934;8.276;2023-02-04T00:30:09;98116.84;;;5.03;91.90
57232;BME280;43488;46.934;8.276;2023-02-04T00:32:37;98106.13;;;5.06;91.69
57232;BME280;43488;46.934;8.276;2023-02-04T00:35:05;98114.22;;;5.03;92.17
57232;BME280;43488;46.934;8.276;2023-02-04T00:37:32;98107.78;;;5.07;92.61
57232;BME280;43488;46.934;8.276;2023-02-04T00:40:00;98112.84;;;5.09;93.22
57232;BME280;43488;46.934;8.276;2023-02-04T00:42:28;98108.44;;;5.09;93.23
57232;BME280;43488;46.934;8.276;2023-02-04T00:44:55;98105.59;;;5.12;93.24
57232;BME280;43488;46.934;8.276;2023-02-04T00:47:23;98100.25;;;5.14;93.54
57232;BME280;43488;46.934;8.276;2023-02-04T00:49:50;98108.06;;;5.14;94.15
57232;BME280;43488;46.934;8.276;2023-02-04T00:52:17;98099.81;;;5.19;93.97
57232;BME280;43488;46.934;8.276;2023-02-04T00:54:45;98081.97;;;5.14;93.58
57232;BME280;43488;46.934;8.276;2023-02-04T00:57:13;98089.38;;;5.19;94.21
57232;BME280;43488;46.934;8.276;2023-02-04T00:59:41;98081.16;;;5.23;94.36
57232;BME280;43488;46.934;8.276;2023-02-04T01:02:08;98090.50;;;5.26;94.80
57232;BME280;43488;46.934;8.276;2023-02-04T01:04:36;98080.72;;;5.28;94.16
57232;BME280;43488;46.934;8.276;2023-02-04T01:07:04;98080.34;;;5.32;93.78
57232;BME280;43488;46.934;8.276;2023-02-04T01:09:31;98089.00;;;5.33;93.08
57232;BME280;43488;46.934;8.276;2023-02-04T01:12:00;98095.59;;;5.37;92.54
57232;BME280;43488;46.934;8.276;2023-02-04T01:14:28;98090.94;;;5.31;92.04
57232;BME280;43488;46.934;8.276;2023-02-04T01:16:55;98106.84;;;5.37;93.28
57232;BME280;43488;46.934;8.276;2023-02-04T01:19:23;98107.00;;;5.36;94.11
57232;BME280;43488;46.934;8.276;2023-02-04T01:21:50;98109.59;;;5.36;95.17
57232;BME280;43488;46.934;8.276;2023-02-04T01:24:18;98114.00;;;5.26;96.74
57232;BME280;43488;46.934;8.276;2023-02-04T01:26:45;98108.22;;;5.22;98.29
57232;BME280;43488;46.934;8.276;2023-02-04T01:29:13;98123.91;;;5.22;98.47
57232;BME280;43488;46.934;8.276;2023-02-04T01:31:40;98109.44;;;5.28;98.30
57232;BME280;43488;46.934;8.276;2023-02-04T01:34:07;98118.81;;;5.30;98.03
57232;BME280;43488;46.934;8.276;2023-02-04T01:36:35;98112.75;;;5.30;98.00
57232;BME280;43488;46.934;8.276;2023-02-04T01:39:02;98101.38;;;5.31;98.25
57232;BME280;43488;46.934;8.276;2023-02-04T01:41:30;98113.19;;;5.35;98.13
57232;BME280;43488;46.934;8.276;2023-02-04T01:43:57;98118.00;;;5.39;97.93
57232;BME280;43488;46.934;8.276;2023-02-04T01:46:24;98112.78;;;5.39;97.92
57232;BME280;43488;46.934;8.276;2023-02-04T01:48:52;98115.66;;;5.36;97.98
57232;BME280;43488;46.934;8.276;2023-02-04T01:51:25;98103.53;;;5.26;98.84
57232;BME280;43488;46.934;8.276;2023-02-04T01:53:54;98105.03;;;5.19;100.00
57232;BME280;43488;46.934;8.276;2023-02-04T01:56:24;98100.13;;;5.25;99.61
57232;BME280;43488;46.934;8.276;2023-02-04T01:58:55;98102.06;;;5.33;98.52
57232;BME280;43488;46.934;8.276;2023-02-04T02:01:42;98093.53;;;5.31;98.35
57232;BME280;43488;46.934;8.276;2023-02-04T02:04:13;98097.22;;;5.28;98.65
57232;BME280;43488;46.934;8.276;2023-02-04T02:06:48;98095.28;;;5.21;100.00
57232;BME280;43488;46.934;8.276;2023-02-04T02:09:18;98090.19;;;5.09;100.00
57232;BME280;43488;46.934;8.276;2023-02-04T02:11:46;98095.69;;;5.06;100.00
57232;BME280;43488;46.934;8.276;2023-02-04T02:14:14;98087.41;;;5.01;100.00
57232;BME280;43488;46.934;8.276;2023-02-04T02:16:41;98082.06;;;5.03;100.00
57232;BME280;43488;46.934;8.276;2023-02-04T02:19:15;98081.81;;;5.06;100.00
57232;BME280;43488;46.934;8.276;2023-02-04T02:21:52;98073.00;;;5.07;100.00
57232;BME280;43488;46.934;8.276;2023-02-04T02:24:31;98081.38;;;5.10;100.00
57232;BME280;43488;46.934;8.276;2023-02-04T02:27:06;98085.25;;;5.06;100.00
57232;BME280;43488;46.934;8.276;2023-02-04T02:29:37;98081.66;;;5.07;100.00
57232;BME280;43488;46.934;8.276;2023-02-04T02:32:08;98074.13;;;5.04;100.00
57232;BME280;43488;46.934;8.276;2023-02-04T02:34:37;98069.13;;;5.01;100.00
57232;BME280;43488;46.934;8.276;2023-02-04T02:37:06;98068.88;;;5.04;100.00
57232;BME280;43488;46.934;8.276;2023-02-04T02:39:39;98062.16;;;5.11;100.00
57232;BME280;43488;46.934;8.276;2023-02-04T02:42:15;98068.47;;;4.99;100.00
57232;BME280;43488;46.934;8.276;2023-02-04T02:44:45;98065.47;;;5.04;100.00
57232;BME280;43488;46.934;8.276;2023-02-04T02:47:20;98066.13;;;5.06;100.00
57232;BME280;43488;46.934;8.276;2023-02-04T02:49:50;98069.28;;;5.09;100.00
57232;BME280;43488;46.934;8.276;2023-02-04T02:52:19;98056.94;;;5.11;100.00
57232;BME280;43488;46.934;8.276;2023-02-04T02:54:47;98066.28;;;5.14;100.00
57232;BME280;43488;46.934;8.276;2023-02-04T02:57:20;98066.00;;;5.17;100.00
57232;BME280;43488;46.934;8.276;2023-02-04T02:59:48;98069.72;;;5.14;100.00
57232;BME280;43488;46.934;8.276;2023-02-04T03:02:19;98072.34;;;5.14;100.00
57232;BME280;43488;46.934;8.276;2023-02-04T03:04:55;98061.31;;;5.11;100.00
57232;BME280;43488;46.934;8.276;2023-02-04T03:07:24;98061.59;;;5.08;100.00
57232;BME280;43488;46.934;8.276;2023-02-04T03:09:52;98055.41;;;5.09;100.00
57232;BME280;43488;46.934;8.276;2023-02-04T03:12:23;98059.81;;;5.08;100.00
57232;BME280;43488;46.934;8.276;2023-02-04T03:14:50;98047.44;;;5.10;100.00
57232;BME280;43488;46.934;8.276;2023-02-04T03:17:17;98043.19;;;5.09;100.00
57232;BME280;43488;46.934;8.276;2023-02-04T03:19:45;98046.75;;;5.08;100.00
57232;BME280;43488;46.934;8.276;2023-02-04T03:22:12;98040.19;;;5.04;100.00
57232;BME280;43488;46.934;8.276;2023-02-04T03:24:40;98032.22;;;5.06;100.00
57232;BME280;43488;46.934;8.276;2023-02-04T03:27:08;98022.88;;;5.03;100.00
57232;BME280;43488;46.934;8.276;2023-02-04T03:29:44;98014.06;;;4.95;100.00
57232;BME280;43488;46.934;8.276;2023-02-04T03:32:11;98001.69;;;4.97;100.00
57232;BME280;43488;46.934;8.276;2023-02-04T03:34:39;98008.97;;;4.93;100.00
57232;BME280;43488;46.934;8.276;2023-02-04T03:37:07;98008.72;;;4.96;100.00
57232;BME280;43488;46.934;8.276;2023-02-04T03:39:34;98012.81;;;4.89;100.00
57232;BME280;43488;46.934;8.276;2023-02-04T03:42:02;98008.03;;;4.94;100.00
57232;BME280;43488;46.934;8.276;2023-02-04T03:44:29;98023.53;;;4.96;100.00
57232;BME280;43488;46.934;8.276;2023-02-04T03:46:57;98025.03;;;4.98;100.00
57232;BME280;43488;46.934;8.276;2023-02-04T03:49:26;98028.34;;;5.00;100.00
57232;BME280;43488;46.934;8.276;2023-02-04T03:51:55;98014.59;;;4.89;100.00
57232;BME280;43488;46.934;8.276;2023-02-04T03:54:22;98025.56;;;4.92;100.00
57232;BME280;43488;46.934;8.276;2023-02-04T03:56:49;98033.41;;;4.92;100.00
57232;BME280;43488;46.934;8.276;2023-02-04T03:59:16;98032.03;;;4.88;100.00
57232;BME280;43488;46.934;8.276;2023-02-04T04:01:44;98023.53;;;4.86;100.00
57232;BME280;43488;46.934;8.276;2023-02-04T04:04:12;98033.38;;;4.82;100.00
57232;BME280;43488;46.934;8.276;2023-02-04T04:06:40;98040.16;;;4.85;100.00
57232;BME280;43488;46.934;8.276;2023-02-04T04:09:07;98056.94;;;4.62;100.00
57232;BME280;43488;46.934;8.276;2023-02-04T04:11:35;98042.97;;;4.72;100.00
57232;BME280;43488;46.934;8.276;2023-02-04T04:14:02;98040.66;;;4.79;100.00
57232;BME280;43488;46.934;8.276;2023-02-04T04:16:29;98040.66;;;4.79;100.00
57232;BME280;43488;46.934;8.276;2023-02-04T04:18:56;98036.56;;;4.86;100.00
57232;BME280;43488;46.934;8.276;2023-02-04T04:21:24;98040.84;;;4.87;100.00
57232;BME280;43488;46.934;8.276;2023-02-04T04:23:51;98053.59;;;4.90;100.00
57232;BME280;43488;46.934;8.276;2023-02-04T04:26:19;98041.50;;;4.89;100.00
57232;BME280;43488;46.934;8.276;2023-02-04T04:28:47;98047.41;;;4.91;100.00
57232;BME280;43488;46.934;8.276;2023-02-04T04:31:14;98046.22;;;4.95;100.00
57232;BME280;43488;46.934;8.276;2023-02-04T04:33:42;98045.09;;;4.98;100.00
57232;BME280;43488;46.934;8.276;2023-02-04T04:36:10;98035.50;;;4.98;100.00
57232;BME280;43488;46.934;8.276;2023-02-04T04:38:37;98038.47;;;4.94;100.00
57232;BME280;43488;46.934;8.276;2023-02-04T04:41:05;98040.00;;;4.87;100.00
57232;BME280;43488;46.934;8.276;2023-02-04T04:43:35;98038.75;;;4.91;100.00
57232;BME280;43488;46.934;8.276;2023-02-04T04:46:02;98035.75;;;4.95;100.00
57232;BME280;43488;46.934;8.276;2023-02-04T04:48:30;98035.06;;;4.93;100.00
57232;BME280;43488;46.934;8.276;2023-02-04T04:50:59;98020.34;;;4.92;100.00
57232;BME280;43488;46.934;8.276;2023-02-04T04:53:27;98014.47;;;4.90;100.00
57232;BME280;43488;46.934;8.276;2023-02-04T04:55:54;98022.41;;;4.89;100.00
57232;BME280;43488;46.934;8.276;2023-02-04T04:58:22;98023.09;;;4.91;100.00
57232;BME280;43488;46.934;8.276;2023-02-04T05:00:50;98027.22;;;4.93;100.00
57232;BME280;43488;46.934;8.276;2023-02-04T05:03:18;98020.09;;;4.95;100.00
57232;BME280;43488;46.934;8.276;2023-02-04T05:05:45;98026.84;;;4.98;100.00
57232;BME280;43488;46.934;8.276;2023-02-04T05:08:13;98026.84;;;4.98;100.00
57232;BME280;43488;46.934;8.276;2023-02-04T05:10:43;98030.53;;;4.95;100.00
57232;BME280;43488;46.934;8.276;2023-02-04T05:13:11;98030.53;;;4.95;100.00
57232;BME280;43488;46.934;8.276;2023-02-04T05:15:39;98018.72;;;4.91;100.00
57232;BME280;43488;46.934;8.276;2023-02-04T05:18:09;98030.66;;;4.94;100.00
57232;BME280;43488;46.934;8.276;2023-02-04T05:20:42;98032.59;;;4.92;100.00
57232;BME280;43488;46.934;8.276;2023-02-04T05:23:10;98022.41;;;4.89;100.00
57232;BME280;43488;46.934;8.276;2023-02-04T05:25:38;98021.03;;;4.84;100.00
57232;BME280;43488;46.934;8.276;2023-02-04T05:28:10;98022.00;;;4.83;100.00
57232;BME280;43488;46.934;8.276;2023-02-04T05:30:37;98009.66;;;4.85;100.00
57232;BME280;43488;46.934;8.276;2023-02-04T05:33:06;98015.81;;;4.84;100.00
57232;BME280;43488;46.934;8.276;2023-02-04T05:35:33;98018.16;;;4.88;100.00
57232;BME280;43488;46.934;8.276;2023-02-04T05:38:00;98007.72;;;4.88;100.00
57232;BME280;43488;46.934;8.276;2023-02-04T05:40:28;98018.41;;;4.84;100.00
57232;BME280;43488;46.934;8.276;2023-02-04T05:42:55;98016.22;;;4.80;100.00
57232;BME280;43488;46.934;8.276;2023-02-04T05:45:23;98022.81;;;4.84;100.00
57232;BME280;43488;46.934;8.276;2023-02-04T05:47:54;98017.88;;;4.81;100.00
57232;BME280;43488;46.934;8.276;2023-02-04T05:50:21;98022.53;;;4.77;100.00
57232;BME280;43488;46.934;8.276;2023-02-04T05:52:48;98029.53;;;4.77;100.00
57232;BME280;43488;46.934;8.276;2023-02-04T05:55:16;98023.09;;;4.81;100.00
57232;BME280;43488;46.934;8.276;2023-02-04T05:57:43;98020.19;;;4.84;100.00
57232;BME280;43488;46.934;8.276;2023-02-04T06:00:11;98027.63;;;4.79;100.00
57232;BME280;43488;46.934;8.276;2023-02-04T06:02:39;98023.38;;;4.78;100.00
57232;BME280;43488;46.934;8.276;2023-02-04T06:05:06;98024.19;;;4.78;100.00
57232;BME280;43488;46.934;8.276;2023-02-04T06:07:34;98023.78;;;4.83;100.00
57232;BME280;43488;46.934;8.276;2023-02-04T06:10:01;98023.91;;;4.81;100.00
57232;BME280;43488;46.934;8.276;2023-02-04T06:12:29;98022.53;;;4.77;100.00
57232;BME280;43488;46.934;8.276;2023-02-04T06:14:57;98021.31;;;4.81;100.00
57232;BME280;43488;46.934;8.276;2023-02-04T06:17:24;98021.44;;;4.80;100.00
57232;BME280;43488;46.934;8.276;2023-02-04T06:19:52;98024.06;;;4.80;100.00
57232;BME280;43488;46.934;8.276;2023-02-04T06:22:20;98019.78;;;4.79;100.00
57232;BME280;43488;46.934;8.276;2023-02-04T06:24:47;98020.34;;;4.82;100.00
57232;BME280;43488;46.934;8.276;2023-02-04T06:27:14;98015.13;;;4.82;100.00
57232;BME280;43488;46.934;8.276;2023-02-04T06:29:52;98018.56;;;4.83;100.00
57232;BME280;43488;46.934;8.276;2023-02-04T06:32:20;98016.09;;;4.81;100.00
57232;BME280;43488;46.934;8.276;2023-02-04T06:34:48;98009.34;;;4.79;100.00
57232;BME280;43488;46.934;8.276;2023-02-04T06:37:15;98004.69;;;4.82;100.00
57232;BME280;43488;46.934;8.276;2023-02-04T06:39:43;98014.97;;;4.84;100.00
57232;BME280;43488;46.934;8.276;2023-02-04T06:42:11;98014.31;;;4.82;100.00
57232;BME280;43488;46.934;8.276;2023-02-04T06:44:39;98018.31;;;4.86;100.00
57232;BME280;43488;46.934;8.276;2023-02-04T06:47:07;98023.78;;;4.83;100.00
57232;BME280;43488;46.934;8.276;2023-02-04T06:49:35;98011.44;;;4.85;100.00
57232;BME280;43488;46.934;8.276;2023-02-04T06:52:02;98012.13;;;4.87;100.00
57232;BME280;43488;46.934;8.276;2023-02-04T06:54:30;98013.78;;;4.88;100.00
57232;BME280;43488;46.934;8.276;2023-02-04T06:56:57;98012.13;;;4.87;100.00
57232;BME280;43488;46.934;8.276;2023-02-04T06:59:34;98024.22;;;4.88;100.00
57232;BME280;43488;46.934;8.276;2023-02-04T07:02:02;98012.50;;;4.82;100.00
57232;BME280;43488;46.934;8.276;2023-02-04T07:04:29;98023.91;;;4.81;100.00
57232;BME280;43488;46.934;8.276;2023-02-04T07:06:57;98033.38;;;4.82;100.00
57232;BME280;43488;46.934;8.276;2023-02-04T07:09:25;98028.75;;;4.86;100.00
57232;BME280;43488;46.934;8.276;2023-02-04T07:11:52;98025.56;;;4.82;100.00
57232;BME280;43488;46.934;8.276;2023-02-04T07:14:20;98034.66;;;4.88;100.00
57232;BME280;43488;46.934;8.276;2023-02-04T07:16:48;98023.78;;;4.93;100.00
57232;BME280;43488;46.934;8.276;2023-02-04T07:19:15;98031.06;;;4.89;100.00
57232;BME280;43488;46.934;8.276;2023-02-04T07:21:42;98033.41;;;4.92;100.00
57232;BME280;43488;46.934;8.276;2023-02-04T07:24:10;98035.75;;;4.95;100.00
57232;BME280;43488;46.934;8.276;2023-02-04T07:26:37;98031.22;;;4.97;100.00
57232;BME280;43488;46.934;8.276;2023-02-04T07:29:04;98043.19;;;5.00;100.00
57232;BME280;43488;46.934;8.276;2023-02-04T07:31:32;98033.16;;;4.95;100.00
57232;BME280;43488;46.934;8.276;2023-02-04T07:34:00;98026.53;;;4.91;100.00
57232;BME280;43488;46.934;8.276;2023-02-04T07:36:27;98031.75;;;4.91;100.00
57232;BME280;43488;46.934;8.276;2023-02-04T07:38:54;98033.84;;;4.97;100.00
57232;BME280;43488;46.934;8.276;2023-02-04T07:41:22;98029.31;;;4.99;100.00
57232;BME280;43488;46.934;8.276;2023-02-04T07:43:49;98030.66;;;4.94;100.00
57232;BME280;43488;46.934;8.276;2023-02-04T07:46:17;98027.13;;;4.95;100.00
57232;BME280;43488;46.934;8.276;2023-02-04T07:48:44;98037.56;;;4.95;100.00
57232;BME280;43488;46.934;8.276;2023-02-04T07:51:11;98036.03;;;5.02;100.00
57232;BME280;43488;46.934;8.276;2023-02-04T07:53:38;98042.22;;;5.01;100.00
57232;BME280;43488;46.934;8.276;2023-02-04T07:56:06;98038.78;;;5.00;100.00
57232;BME280;43488;46.934;8.276;2023-02-04T07:58:33;98043.63;;;5.05;100.00
57232;BME280;43488;46.934;8.276;2023-02-04T08:01:01;98056.81;;;5.03;100.00
57232;BME280;43488;46.934;8.276;2023-02-04T08:03:28;98051.03;;;5.09;100.00
57232;BME280;43488;46.934;8.276;2023-02-04T08:05:55;98050.34;;;5.07;100.00
57232;BME280;43488;46.934;8.276;2023-02-04T08:08:22;98058.84;;;5.09;100.00
57232;BME280;43488;46.934;8.276;2023-02-04T08:10:50;98059.69;;;5.10;100.00
57232;BME280;43488;46.934;8.276;2023-02-04T08:13:18;98058.03;;;5.09;100.00
57232;BME280;43488;46.934;8.276;2023-02-04T08:15:45;98062.97;;;5.12;100.00
57232;BME280;43488;46.934;8.276;2023-02-04T08:18:12;98057.75;;;5.12;100.00
57232;BME280;43488;46.934;8.276;2023-02-04T08:20:39;98059.84;;;5.18;100.00
57232;BME280;43488;46.934;8.276;2023-02-04T08:23:07;98065.88;;;5.19;100.00
57232;BME280;43488;46.934;8.276;2023-02-04T08:25:34;98069.88;;;5.23;100.00
57232;BME280;43488;46.934;8.276;2023-02-04T08:28:02;98066.84;;;5.27;100.00
57232;BME280;43488;46.934;8.276;2023-02-04T08:30:29;98063.13;;;5.30;100.00
57232;BME280;43488;46.934;8.276;2023-02-04T08:32:56;98055.88;;;5.33;100.00
57232;BME280;43488;46.934;8.276;2023-02-04T08:35:24;98061.38;;;5.40;100.00
57232;BME280;43488;46.934;8.276;2023-02-04T08:37:51;98066.72;;;5.48;100.00
57232;BME280;43488;46.934;8.276;2023-02-04T08:40:18;98062.75;;;5.54;100.00
57232;BME280;43488;46.934;8.276;2023-02-04T08:42:45;98061.09;;;5.53;100.00
57232;BME280;43488;46.934;8.276;2023-02-04T08:45:13;98060.28;;;5.52;100.00
57232;BME280;43488;46.934;8.276;2023-02-04T08:47:40;98079.09;;;5.46;100.00
57232;BME280;43488;46.934;8.276;2023-02-04T08:50:09;98073.19;;;5.44;100.00
57232;BME280;43488;46.934;8.276;2023-02-04T08:52:37;98068.78;;;5.45;100.00
57232;BME280;43488;46.934;8.276;2023-02-04T08:55:05;98079.38;;;5.43;100.00
57232;BME280;43488;46.934;8.276;2023-02-04T08:57:32;98071.41;;;5.35;100.00
57232;BME280;43488;46.934;8.276;2023-02-04T09:00:01;98079.66;;;5.40;100.00
57232;BME280;43488;46.934;8.276;2023-02-04T09:02:28;98089.69;;;5.45;100.00
57232;BME280;43488;46.934;8.276;2023-02-04T09:04:55;98085.56;;;5.42;100.00
57232;BME280;43488;46.934;8.276;2023-02-04T09:07:24;98092.84;;;5.48;100.00
57232;BME280;43488;46.934;8.276;2023-02-04T09:09:51;98093.56;;;5.50;100.00
57232;BME280;43488;46.934;8.276;2023-02-04T09:12:19;98097.38;;;5.46;100.00
57232;BME280;43488;46.934;8.276;2023-02-04T09:14:47;98105.91;;;5.48;100.00
57232;BME280;43488;46.934;8.276;2023-02-04T09:17:14;98100.69;;;5.48;100.00
57232;BME280;43488;46.934;8.276;2023-02-04T09:19:41;98097.66;;;5.53;100.00
57232;BME280;43488;46.934;8.276;2023-02-04T09:22:08;98107.28;;;5.52;100.00
57232;BME280;43488;46.934;8.276;2023-02-04T09:24:35;98107.59;;;5.59;100.00
57232;BME280;43488;46.934;8.276;2023-02-04T09:27:03;98109.38;;;5.58;100.00
57232;BME280;43488;46.934;8.276;2023-02-04T09:29:30;98120.66;;;5.59;100.00
57232;BME280;43488;46.934;8.276;2023-02-04T09:31:58;98115.81;;;5.64;100.00
57232;BME280;43488;46.934;8.276;2023-02-04T09:34:26;98109.78;;;5.63;100.00
57232;BME280;43488;46.934;8.276;2023-02-04T09:36:53;98113.06;;;5.65;100.00
57232;BME280;43488;46.934;8.276;2023-02-04T09:39:20;98119.13;;;5.66;100.00
57232;BME280;43488;46.934;8.276;2023-02-04T09:41:48;98120.78;;;5.67;100.00
57232;BME280;43488;46.934;8.276;2023-02-04T09:44:19;98120.78;;;5.67;100.00
57232;BME280;43488;46.934;8.276;2023-02-04T09:46:51;98116.38;;;5.67;100.00
57232;BME280;43488;46.934;8.276;2023-02-04T09:49:19;98122.69;;;5.65;100.00
57232;BME280;43488;46.934;8.276;2023-02-04T09:51:49;98117.31;;;5.66;100.00
57232;BME280;43488;46.934;8.276;2023-02-04T09:54:19;98118.28;;;5.65;100.00
57232;BME280;43488;46.934;8.276;2023-02-04T09:56:48;98119.53;;;5.71;100.00
57232;BME280;43488;46.934;8.276;2023-02-04T09:59:22;98119.41;;;5.72;100.00
57232;BME280;43488;46.934;8.276;2023-02-04T10:02:18;98123.53;;;5.75;100.00
57232;BME280;43488;46.934;8.276;2023-02-04T10:04:46;98119.81;;;5.78;100.00
57232;BME280;43488;46.934;8.276;2023-02-04T10:07:17;98121.47;;;5.79;100.00
57232;BME280;43488;46.934;8.276;2023-02-04T10:09:49;98127.66;;;5.78;100.00
57232;BME280;43488;46.934;8.276;2023-02-04T10:12:18;98126.56;;;5.80;100.00
57232;BME280;43488;46.934;8.276;2023-02-04T10:14:45;98123.94;;;5.80;100.00
57232;BME280;43488;46.934;8.276;2023-02-04T10:17:19;98133.56;;;5.80;100.00
57232;BME280;43488;46.934;8.276;2023-02-04T10:19:47;98127.91;;;5.84;100.00
57232;BME280;43488;46.934;8.276;2023-02-04T10:22:18;98138.50;;;5.83;100.00
57232;BME280;43488;46.934;8.276;2023-02-04T10:24:47;98133.97;;;5.85;100.00
57232;BME280;43488;46.934;8.276;2023-02-04T10:27:14;98126.69;;;5.79;100.00
57232;BME280;43488;46.934;8.276;2023-02-04T10:29:56;98127.25;;;5.82;100.00
57232;BME280;43488;46.934;8.276;2023-02-04T10:32:33;98134.81;;;5.85;100.00
57232;BME280;43488;46.934;8.276;2023-02-04T10:35:01;98133.16;;;5.84;100.00
57232;BME280;43488;46.934;8.276;2023-02-04T10:37:29;98128.06;;;5.83;100.00
57232;BME280;43488;46.934;8.276;2023-02-04T10:39:59;98129.84;;;5.82;100.00
57232;BME280;43488;46.934;8.276;2023-02-04T10:42:29;98115.28;;;5.80;100.00
57232;BME280;43488;46.934;8.276;2023-02-04T10:44:57;98127.09;;;5.84;100.00
57232;BME280;43488;46.934;8.276;2023-02-04T10:47:29;98118.28;;;5.85;100.00
57232;BME280;43488;46.934;8.276;2023-02-04T10:50:16;98117.59;;;5.83;100.00
57232;BME280;43488;46.934;8.276;2023-02-04T10:52:57;98117.47;;;5.84;100.00
57232;BME280;43488;46.934;8.276;2023-02-04T10:55:48;98119.81;;;5.87;100.00
57232;BME280;43488;46.934;8.276;2023-02-04T10:58:28;98104.00;;;5.89;100.00
57232;BME280;43488;46.934;8.276;2023-02-04T11:00:56;98115.84;;;5.93;100.00
57232;BME280;43488;46.934;8.276;2023-02-04T11:03:27;98101.53;;;5.97;100.00
57232;BME280;43488;46.934;8.276;2023-02-04T11:05:59;98109.94;;;6.01;100.00
57232;BME280;43488;46.934;8.276;2023-02-04T11:08:32;98110.59;;;6.03;100.00
57232;BME280;43488;46.934;8.276;2023-02-04T11:11:06;98104.00;;;6.08;100.00
57232;BME280;43488;46.934;8.276;2023-02-04T11:18:54;98096.84;;;6.10;100.00
57232;BME280;43488;46.934;8.276;2023-02-04T11:21:40;98091.47;;;6.12;100.00
57232;BME280;43488;46.934;8.276;2023-02-04T11:26:49;98088.03;;;6.11;100.00
57232;BME280;43488;46.934;8.276;2023-02-04T11:32:11;98087.47;;;6.17;100.00
57232;BME280;43488;46.934;8.276;2023-02-04T11:34:52;98083.63;;;6.12;100.00
57232;BME280;43488;46.934;8.276;2023-02-04T11:37:37;98085.81;;;6.16;100.00
57232;BME280;43488;46.934;8.276;2023-02-04T11:43:10;98087.88;;;6.22;100.00
57232;BME280;43488;46.934;8.276;2023-02-04T11:45:40;98089.78;;;6.20;100.00
57232;BME280;43488;46.934;8.276;2023-02-04T11:48:17;98088.81;;;6.21;100.00
57232;BME280;43488;46.934;8.276;2023-02-04T11:50:58;98100.00;;;6.23;100.00
57232;BME280;43488;46.934;8.276;2023-02-04T11:53:31;98102.88;;;6.20;100.00
57232;BME280;43488;46.934;8.276;2023-02-04T11:56:00;98097.63;;;6.20;100.00
57232;BME280;43488;46.934;8.276;2023-02-04T11:58:29;98099.03;;;6.24;100.00
57232;BME280;43488;46.934;8.276;2023-02-04T12:00:57;98098.72;;;6.27;100.00
57232;BME280;43488;46.934;8.276;2023-02-04T12:03:30;98099.56;;;6.28;100.00
57232;BME280;43488;46.934;8.276;2023-02-04T12:05:58;98095.41;;;6.35;100.00
57232;BME280;43488;46.934;8.276;2023-02-04T12:08:32;98093.88;;;6.42;100.00
57232;BME280;43488;46.934;8.276;2023-02-04T12:11:22;98094.25;;;6.47;100.00
57232;BME280;43488;46.934;8.276;2023-02-04T12:13:54;98097.28;;;6.52;100.00
57232;BME280;43488;46.934;8.276;2023-02-04T12:16:22;98094.22;;;6.57;100.00
57232;BME280;43488;46.934;8.276;2023-02-04T12:18:50;98090.66;;;6.58;100.00
57232;BME280;43488;46.934;8.276;2023-02-04T12:21:18;98083.34;;;6.62;100.00
57232;BME280;43488;46.934;8.276;2023-02-04T12:23:45;98092.69;;;6.64;100.00
57232;BME280;43488;46.934;8.276;2023-02-04T12:26:13;98085.41;;;6.68;100.00
57232;BME280;43488;46.934;8.276;2023-02-04T12:28:40;98095.88;;;6.68;100.00
57232;BME280;43488;46.934;8.276;2023-02-04T12:31:07;98094.75;;;6.70;100.00
57232;BME280;43488;46.934;8.276;2023-02-04T12:33:34;98098.34;;;6.69;100.00
57232;BME280;43488;46.934;8.276;2023-02-04T12:36:01;98095.28;;;6.74;100.00
57232;BME280;43488;46.934;8.276;2023-02-04T12:38:29;98099.13;;;6.79;100.00
57232;BME280;43488;46.934;8.276;2023-02-04T12:40:56;98105.84;;;6.82;100.00
57232;BME280;43488;46.934;8.276;2023-02-04T12:43:23;98100.09;;;6.78;100.00
57232;BME280;43488;46.934;8.276;2023-02-04T12:45:52;98101.88;;;6.78;100.00
57232;BME280;43488;46.934;8.276;2023-02-04T12:48:20;98100.47;;;6.83;100.00
57232;BME280;43488;46.934;8.276;2023-02-04T12:50:47;98102.13;;;6.84;100.00
57232;BME280;43488;46.934;8.276;2023-02-04T12:53:14;98101.19;;;6.76;100.00
57232;BME280;43488;46.934;8.276;2023-02-04T12:55:42;98102.97;;;6.75;100.00
57232;BME280;43488;46.934;8.276;2023-02-04T12:58:10;98097.63;;;6.67;100.00
57232;BME280;43488;46.934;8.276;2023-02-04T13:00:38;98104.97;;;6.64;100.00
57232;BME280;43488;46.934;8.276;2023-02-04T13:03:05;98104.44;;;6.60;100.00
57232;BME280;43488;46.934;8.276;2023-02-04T13:05:33;98100.84;;;6.61;100.00
57232;BME280;43488;46.934;8.276;2023-02-04T13:08:02;98105.78;;;6.64;100.00
57232;BME280;43488;46.934;8.276;2023-02-04T13:10:29;98102.34;;;6.64;100.00
57232;BME280;43488;46.934;8.276;2023-02-04T13:12:56;98102.31;;;6.73;100.00
57232;BME280;43488;46.934;8.276;2023-02-04T13:15:23;98107.16;;;6.68;100.00
57232;BME280;43488;46.934;8.276;2023-02-04T13:17:51;98107.84;;;6.70;100.00
57232;BME280;43488;46.934;8.276;2023-02-04T13:20:19;98104.41;;;6.70;100.00
57232;BME280;43488;46.934;8.276;2023-02-04T13:22:46;98098.50;;;6.68;100.00
57232;BME280;43488;46.934;8.276;2023-02-04T13:25:14;98100.91;;;6.79;100.00